createdAt,value
2019-04-07T00:00:54.540Z,36.85
2019-04-07T00:03:28.138Z,36.87
2019-04-07T00:06:01.480Z,36.84
2019-04-07T00:08:35.128Z,36.86
2019-04-07T00:11:08.488Z,36.86
2019-04-07T00:13:41.858Z,36.83
2019-04-07T00:16:15.720Z,36.86
2019-04-07T00:18:49.560Z,36.88
2019-04-07T00:21:24.038Z,36.83
2019-04-07T00:23:58.696Z,36.82
2019-04-07T00:26:32.132Z,36.84
2019-04-07T00:29:05.531Z,36.89
2019-04-07T00:31:39.798Z,36.87
2019-04-07T00:34:13.195Z,36.88
2019-04-07T00:36:46.861Z,36.92
2019-04-07T00:39:20.857Z,36.85
2019-04-07T00:41:54.278Z,36.88
2019-04-07T00:44:27.891Z,36.92
2019-04-07T00:47:01.445Z,36.92
2019-04-07T00:49:34.905Z,36.90
2019-04-07T00:52:08.369Z,36.89
2019-04-07T00:54:43.320Z,36.93
2019-04-07T00:57:17.709Z,36.93
2019-04-07T00:59:51.486Z,36.95
2019-04-07T01:02:25.947Z,36.96
2019-04-07T01:04:59.883Z,36.91
2019-04-07T01:07:33.459Z,36.94
2019-04-07T01:10:06.942Z,36.97
2019-04-07T01:12:40.284Z,36.93
2019-04-07T01:15:14.052Z,36.95
2019-04-07T01:17:47.343Z,36.98
2019-04-07T01:20:20.677Z,37.01
2019-04-07T01:22:54.249Z,36.99
2019-04-07T01:25:27.605Z,36.99
2019-04-07T01:28:00.937Z,37.03
2019-04-07T01:30:34.942Z,37.04
2019-04-07T01:33:08.788Z,37.00
2019-04-07T01:35:48.088Z,37.07
2019-04-07T01:38:17.873Z,37.05
2019-04-07T01:40:51.926Z,37.11
2019-04-07T01:43:25.905Z,37.12
2019-04-07T01:45:59.941Z,37.11
2019-04-07T01:48:33.322Z,37.10
2019-04-07T01:51:08.142Z,37.13
2019-04-07T01:53:42.011Z,37.11
2019-04-07T01:56:15.727Z,37.16
2019-04-07T01:58:49.402Z,37.16
2019-04-07T02:01:23.069Z,37.16
2019-04-07T02:03:56.570Z,37.16
2019-04-07T02:06:30.032Z,37.19
2019-04-07T02:09:07.132Z,37.25
2019-04-07T02:11:40.441Z,37.26
2019-04-07T02:14:13.837Z,37.23
2019-04-07T02:16:47.553Z,37.27
2019-04-07T02:19:21.591Z,37.31
2019-04-07T02:21:55.705Z,37.26
2019-04-07T02:24:29.903Z,37.24
2019-04-07T02:27:04.015Z,37.33
2019-04-07T02:29:37.449Z,37.32
2019-04-07T02:32:10.892Z,37.39
2019-04-07T02:34:45.522Z,37.41
2019-04-07T02:37:19.290Z,37.40
2019-04-07T02:39:52.836Z,37.34
2019-04-07T02:42:26.711Z,37.42
2019-04-07T02:45:00.112Z,37.43
2019-04-07T02:47:33.452Z,37.45
2019-04-07T02:50:07.191Z,37.38
2019-04-07T02:52:40.849Z,37.52
2019-04-07T02:55:14.418Z,37.47
2019-04-07T02:57:48.705Z,37.52
2019-04-07T03:00:24.458Z,37.46
2019-04-07T03:02:58.211Z,37.47
2019-04-07T03:05:31.737Z,37.55
2019-04-07T03:08:05.762Z,37.50
2019-04-07T03:10:39.335Z,37.50
2019-04-07T03:13:12.802Z,37.48
2019-04-07T03:15:48.409Z,37.51
2019-04-07T03:18:25.244Z,37.52
2019-04-07T03:20:59.193Z,37.56
2019-04-07T03:23:32.783Z,37.62
2019-04-07T03:26:06.028Z,37.53
2019-04-07T03:28:39.997Z,37.59
2019-04-07T03:31:15.400Z,37.55
2019-04-07T03:33:49.817Z,37.57
2019-04-07T03:36:27.961Z,37.50
2019-04-07T03:38:59.105Z,37.36
2019-04-07T03:41:34.898Z,37.43
2019-04-07T03:44:09.264Z,37.34
2019-04-07T03:46:43.109Z,37.19
2019-04-07T03:49:17.044Z,37.40
2019-04-07T03:51:51.397Z,37.30
2019-04-07T03:54:24.876Z,37.31
2019-04-07T03:56:58.456Z,37.19
2019-04-07T03:59:33.578Z,37.10
2019-04-07T04:02:08.595Z,36.97
2019-04-07T04:04:42.025Z,36.76
2019-04-07T04:07:26.610Z,36.63
2019-04-07T04:09:50.416Z,36.43
2019-04-07T04:12:24.357Z,36.29
2019-04-07T04:14:59.775Z,36.17
2019-04-07T04:17:33.022Z,36.04
2019-04-07T04:20:06.850Z,36.04
2019-04-07T04:22:40.257Z,35.91
2019-04-07T04:25:13.589Z,35.92
2019-04-07T04:27:46.909Z,35.86
2019-04-07T04:30:21.318Z,35.68
2019-04-07T04:32:55.433Z,35.60
2019-04-07T04:35:28.847Z,35.40
2019-04-07T04:38:02.247Z,35.33
2019-04-07T04:40:36.192Z,35.21
2019-04-07T04:43:10.398Z,35.10
2019-04-07T04:45:44.822Z,35.09
2019-04-07T04:48:19.552Z,35.09
2019-04-07T04:50:53.088Z,35.01
2019-04-07T04:53:26.885Z,34.91
2019-04-07T04:56:00.970Z,34.89
2019-04-07T04:58:34.915Z,34.81
2019-04-07T05:01:09.683Z,34.77
2019-04-07T05:03:43.061Z,34.86
2019-04-07T05:06:16.596Z,34.88
2019-04-07T05:08:50.026Z,34.83
2019-04-07T05:11:23.891Z,34.87
2019-04-07T05:13:58.123Z,34.90
2019-04-07T05:16:32.119Z,34.94
2019-04-07T05:19:07.318Z,34.88
2019-04-07T05:21:40.633Z,34.88
2019-04-07T05:24:14.656Z,34.79
2019-04-07T05:26:48.085Z,34.82
2019-04-07T05:29:21.413Z,34.73
2019-04-07T05:31:54.733Z,34.80
2019-04-07T05:34:28.132Z,34.65
2019-04-07T05:37:02.202Z,34.73
2019-04-07T05:39:36.262Z,34.69
2019-04-07T05:42:09.885Z,34.76
2019-04-07T05:44:44.837Z,34.72
2019-04-07T05:47:18.916Z,34.76
2019-04-07T05:49:57.365Z,34.79
2019-04-07T05:52:27.414Z,34.81
2019-04-07T05:55:01.321Z,34.79
2019-04-07T05:57:35.915Z,34.81
2019-04-07T06:00:15.685Z,34.83
2019-04-07T06:02:47.104Z,34.80
2019-04-07T06:05:21.239Z,34.71
2019-04-07T06:07:54.815Z,34.71
2019-04-07T06:10:29.750Z,34.80
2019-04-07T06:13:04.110Z,34.85
2019-04-07T06:15:39.265Z,34.92
2019-04-07T06:18:12.655Z,35.00
2019-04-07T06:20:46.688Z,34.90
2019-04-07T06:23:22.138Z,34.88
2019-04-07T06:25:57.311Z,34.92
2019-04-07T06:28:30.222Z,34.83
2019-04-07T06:31:03.808Z,34.91
2019-04-07T06:33:38.252Z,34.84
2019-04-07T06:36:13.158Z,34.90
2019-04-07T06:38:51.439Z,34.91
2019-04-07T06:41:21.898Z,34.92
2019-04-07T06:44:08.216Z,34.87
2019-04-07T06:46:30.645Z,34.98
2019-04-07T06:49:04.509Z,34.97
2019-04-07T06:51:39.829Z,35.03
2019-04-07T06:54:13.428Z,34.96
2019-04-07T06:56:46.913Z,34.97
2019-04-07T06:59:22.011Z,34.99
2019-04-07T07:01:59.165Z,34.97
2019-04-07T07:04:32.291Z,35.05
2019-04-07T07:07:06.499Z,34.94
2019-04-07T07:09:41.611Z,34.97
2019-04-07T07:12:22.579Z,35.15
2019-04-07T07:14:50.801Z,35.07
2019-04-07T07:17:24.402Z,34.78
2019-04-07T07:20:01.405Z,34.89
2019-04-07T07:22:33.636Z,34.79
2019-04-07T07:25:09.959Z,34.98
2019-04-07T07:27:43.050Z,34.82
2019-04-07T07:30:18.360Z,34.92
2019-04-07T07:32:52.053Z,34.92
2019-04-07T07:35:25.652Z,34.89
2019-04-07T07:37:59.777Z,34.93
2019-04-07T07:40:35.115Z,34.97
2019-04-07T07:43:08.666Z,34.85
2019-04-07T07:45:47.008Z,34.87
2019-04-07T07:48:18.514Z,34.82
2019-04-07T07:50:52.118Z,34.84
2019-04-07T07:53:28.348Z,34.75
2019-04-07T07:56:02.115Z,34.73
2019-04-07T07:58:35.691Z,34.79
2019-04-07T08:01:11.834Z,34.80
2019-04-07T08:03:44.307Z,34.84
2019-04-07T08:06:19.382Z,34.79
2019-04-07T08:08:52.771Z,34.73
2019-04-07T08:11:26.384Z,34.67
2019-04-07T08:13:59.739Z,34.68
2019-04-07T08:16:33.566Z,34.67
2019-04-07T08:19:09.437Z,34.78
2019-04-07T08:21:43.637Z,34.82
2019-04-07T08:24:19.177Z,34.96
2019-04-07T08:26:56.297Z,35.05
2019-04-07T08:29:30.138Z,35.11
2019-04-07T08:32:04.247Z,35.04
2019-04-07T08:34:37.621Z,35.00
2019-04-07T08:37:14.392Z,34.97
2019-04-07T08:39:46.197Z,34.98
2019-04-07T08:42:20.028Z,34.90
2019-04-07T08:44:57.243Z,34.95
2019-04-07T08:47:30.269Z,34.92
2019-04-07T08:50:07.213Z,34.89
2019-04-07T08:52:42.767Z,34.97
2019-04-07T08:55:15.613Z,34.95
2019-04-07T08:57:49.459Z,34.93
2019-04-07T09:00:22.922Z,34.93
2019-04-07T09:03:03.665Z,34.88
2019-04-07T09:05:31.384Z,34.87
2019-04-07T09:08:07.313Z,34.84
2019-04-07T09:10:41.228Z,34.77
2019-04-07T09:13:14.587Z,34.79
2019-04-07T09:15:49.669Z,34.79
2019-04-07T09:18:23.300Z,34.74
2019-04-07T09:20:57.219Z,34.79
2019-04-07T09:23:31.245Z,34.72
2019-04-07T09:26:10.075Z,34.79
2019-04-07T09:28:40.908Z,34.75
2019-04-07T09:31:14.372Z,34.72
2019-04-07T09:33:49.085Z,34.74
2019-04-07T09:36:23.376Z,34.75
2019-04-07T09:38:59.333Z,34.71
2019-04-07T09:41:33.442Z,34.70
2019-04-07T09:44:06.922Z,34.61
2019-04-07T09:46:44.771Z,34.63
2019-04-07T09:49:15.468Z,34.72
2019-04-07T09:51:49.537Z,34.72
2019-04-07T09:54:23.541Z,34.66
2019-04-07T09:56:57.272Z,34.62
2019-04-07T09:59:30.756Z,34.61
2019-04-07T10:02:06.235Z,34.58
2019-04-07T10:04:42.280Z,34.56
2019-04-07T10:07:16.029Z,34.55
2019-04-07T10:09:50.182Z,34.55
2019-04-07T10:12:24.819Z,34.54
2019-04-07T10:14:58.332Z,34.55
2019-04-07T10:17:31.801Z,34.57
2019-04-07T10:20:05.242Z,34.55
2019-04-07T10:22:38.535Z,34.53
2019-04-07T10:25:12.062Z,34.52
2019-04-07T10:27:46.401Z,34.51
2019-04-07T10:30:20.111Z,34.48
2019-04-07T10:32:53.512Z,34.51
2019-04-07T10:35:27.080Z,34.44
2019-04-07T10:38:00.831Z,34.47
2019-04-07T10:40:40.154Z,34.46
2019-04-07T10:43:19.689Z,34.41
2019-04-07T10:45:53.836Z,34.40
2019-04-07T10:48:28.672Z,34.44
2019-04-07T10:51:02.215Z,34.46
2019-04-07T10:53:35.559Z,34.46
2019-04-07T10:56:08.989Z,34.49
2019-04-07T10:58:43.626Z,34.48
2019-04-07T11:01:19.406Z,34.53
2019-04-07T11:03:54.730Z,34.51
2019-04-07T11:06:28.411Z,34.53
2019-04-07T11:09:01.969Z,34.44
2019-04-07T11:11:36.490Z,34.41
2019-04-07T11:14:11.309Z,34.42
2019-04-07T11:16:45.283Z,34.46
2019-04-07T11:19:18.718Z,34.46
2019-04-07T11:21:52.057Z,34.47
2019-04-07T11:24:25.348Z,34.44
2019-04-07T11:26:59.798Z,34.40
2019-04-07T11:29:33.711Z,34.42
2019-04-07T11:32:08.662Z,34.40
2019-04-07T11:34:43.724Z,34.37
2019-04-07T11:37:17.811Z,34.38
2019-04-07T11:39:51.306Z,34.27
2019-04-07T11:42:25.725Z,34.28
2019-04-07T11:44:59.682Z,34.30
2019-04-07T11:47:33.961Z,34.31
2019-04-07T11:50:10.463Z,34.29
2019-04-07T11:52:43.897Z,34.31
2019-04-07T11:55:17.360Z,34.33
2019-04-07T11:58:06.561Z,34.34
2019-04-07T12:00:28.084Z,34.33
2019-04-07T12:03:01.714Z,34.34
2019-04-07T12:05:35.048Z,34.35
2019-04-07T12:08:08.407Z,34.31
2019-04-07T12:10:54.204Z,34.29
2019-04-07T12:13:16.920Z,34.28
2019-04-07T12:15:50.860Z,34.28
2019-04-07T12:18:24.401Z,34.22
2019-04-07T12:21:00.955Z,34.20
2019-04-07T12:23:32.968Z,34.18
2019-04-07T12:26:07.414Z,34.13
2019-04-07T12:28:41.197Z,34.18
2019-04-07T12:31:14.675Z,34.14
2019-04-07T12:33:48.640Z,34.19
2019-04-07T12:36:26.653Z,34.18
2019-04-07T12:38:57.463Z,34.09
2019-04-07T12:41:32.238Z,34.00
2019-04-07T12:44:06.660Z,33.90
2019-04-07T12:46:40.578Z,33.85
2019-04-07T12:49:14.468Z,33.71
2019-04-07T12:51:52.453Z,33.62
2019-04-07T12:54:24.141Z,33.53
2019-04-07T12:56:57.940Z,33.41
2019-04-07T12:59:31.477Z,33.42
2019-04-07T13:02:07.866Z,33.51
2019-04-07T13:04:40.757Z,33.27
2019-04-07T13:07:18.409Z,32.83
2019-04-07T13:09:49.870Z,32.96
2019-04-07T13:12:24.731Z,33.12
2019-04-07T13:14:59.043Z,33.27
2019-04-07T13:17:35.823Z,33.32
2019-04-07T13:20:08.751Z,32.18
2019-04-07T13:22:42.240Z,32.77
2019-04-07T13:25:18.665Z,33.55
2019-04-07T13:27:50.591Z,33.50
2019-04-07T13:30:24.094Z,32.29
2019-04-07T13:33:00.707Z,32.96
2019-04-07T13:35:32.563Z,33.28
2019-04-07T13:38:06.624Z,33.49
2019-04-07T13:40:45.172Z,32.81
2019-04-07T13:43:16.499Z,32.52
2019-04-07T13:45:50.663Z,33.07
2019-04-07T13:48:24.109Z,33.42
2019-04-07T13:50:57.722Z,33.65
2019-04-07T13:53:31.854Z,34.66
2019-04-07T13:56:07.294Z,35.03
2019-04-07T13:58:41.098Z,35.82
2019-04-07T14:01:18.028Z,35.96
2019-04-07T14:03:50.403Z,37.00
2019-04-07T14:06:23.820Z,36.92
2019-04-07T14:08:58.814Z,37.14
2019-04-07T14:11:32.811Z,38.08
2019-04-07T14:14:06.923Z,38.24
2019-04-07T14:16:41.249Z,38.11
2019-04-07T14:19:14.843Z,37.81
2019-04-07T14:21:48.288Z,38.09
2019-04-07T14:24:21.863Z,38.12
2019-04-07T14:26:55.242Z,38.33
2019-04-07T14:29:29.565Z,38.57
2019-04-07T14:32:04.518Z,38.58
2019-04-07T14:34:39.049Z,38.89
2019-04-07T14:37:12.666Z,38.54
2019-04-07T14:39:46.611Z,38.54
2019-04-07T14:42:19.910Z,38.43
2019-04-07T14:44:54.300Z,38.66
2019-04-07T14:47:28.430Z,38.91
2019-04-07T14:50:02.118Z,39.08
2019-04-07T14:52:36.119Z,38.84
2019-04-07T14:55:09.676Z,38.88
2019-04-07T14:57:43.676Z,38.60
2019-04-07T15:00:17.309Z,38.27
2019-04-07T15:02:51.067Z,38.02
2019-04-07T15:05:25.365Z,37.98
2019-04-07T15:07:59.983Z,37.78
2019-04-07T15:10:36.143Z,37.63
2019-04-07T15:13:10.691Z,37.63
2019-04-07T15:15:44.303Z,37.44
2019-04-07T15:18:18.663Z,37.43
2019-04-07T15:20:52.762Z,37.36
2019-04-07T15:23:29.451Z,37.26
2019-04-07T15:26:01.165Z,36.98
2019-04-07T15:28:34.600Z,36.93
2019-04-07T15:31:08.579Z,36.99
2019-04-07T15:33:42.411Z,36.79
2019-04-07T15:36:18.706Z,36.72
2019-04-07T15:38:55.425Z,36.55
2019-04-07T15:41:27.605Z,36.39
2019-04-07T15:44:05.074Z,36.18
2019-04-07T15:46:36.645Z,36.17
2019-04-07T15:49:10.610Z,35.73
2019-04-07T15:51:45.180Z,35.59
2019-04-07T15:54:22.383Z,35.57
2019-04-07T15:56:53.994Z,35.42
2019-04-07T15:59:29.398Z,35.36
2019-04-07T16:02:02.460Z,35.28
2019-04-07T16:04:36.229Z,35.16
2019-04-07T16:07:10.261Z,35.10
2019-04-07T16:09:52.804Z,35.02
2019-04-07T16:12:20.822Z,34.93
2019-04-07T16:14:54.718Z,34.89
2019-04-07T16:17:28.779Z,34.81
2019-04-07T16:20:03.673Z,34.82
2019-04-07T16:22:38.975Z,34.80
2019-04-07T16:25:13.057Z,34.84
2019-04-07T16:27:47.605Z,34.83
2019-04-07T16:30:21.580Z,34.85
2019-04-07T16:32:55.179Z,34.83
2019-04-07T16:35:28.500Z,34.90
2019-04-07T16:38:02.910Z,34.90
2019-04-07T16:40:36.364Z,34.93
2019-04-07T16:43:14.481Z,34.89
2019-04-07T16:45:45.904Z,34.92
2019-04-07T16:48:20.869Z,34.93
2019-04-07T16:50:55.271Z,34.94
2019-04-07T16:53:30.955Z,34.95
2019-04-07T16:56:05.301Z,35.00
2019-04-07T16:58:40.060Z,34.99
2019-04-07T17:01:14.282Z,34.98
2019-04-07T17:03:48.813Z,34.94
2019-04-07T17:06:22.948Z,34.91
2019-04-07T17:08:56.295Z,34.97
2019-04-07T17:11:30.073Z,35.00
2019-04-07T17:14:04.288Z,34.98
2019-04-07T17:16:40.726Z,34.96
2019-04-07T17:19:13.176Z,34.94
2019-04-07T17:21:47.039Z,34.97
2019-04-07T17:24:24.921Z,35.03
2019-04-07T17:26:56.446Z,34.97
2019-04-07T17:29:32.488Z,34.97
2019-04-07T17:32:06.174Z,34.92
2019-04-07T17:34:41.663Z,34.95
2019-04-07T17:37:16.288Z,34.98
2019-04-07T17:39:49.912Z,34.94
2019-04-07T17:42:26.195Z,34.96
2019-04-07T17:44:59.366Z,35.05
2019-04-07T17:47:33.553Z,35.02
2019-04-07T17:50:09.025Z,35.06
2019-04-07T17:52:42.668Z,35.06
2019-04-07T17:55:15.974Z,35.06
2019-04-07T17:57:49.596Z,35.09
2019-04-07T18:00:23.684Z,35.00
2019-04-07T18:03:01.535Z,35.07
2019-04-07T18:05:32.463Z,35.10
2019-04-07T18:08:09.065Z,35.15
2019-04-07T18:10:40.892Z,35.11
2019-04-07T18:13:16.605Z,35.15
2019-04-07T18:15:49.913Z,35.20
2019-04-07T18:18:25.928Z,35.09
2019-04-07T18:20:58.531Z,35.16
2019-04-07T18:23:34.640Z,35.13
2019-04-07T18:26:09.898Z,35.13
2019-04-07T18:28:43.470Z,35.16
2019-04-07T18:31:17.865Z,35.19
2019-04-07T18:33:53.642Z,35.22
2019-04-07T18:36:27.620Z,35.20
2019-04-07T18:39:01.124Z,35.33
2019-04-07T18:41:36.372Z,35.32
2019-04-07T18:44:10.823Z,35.23
2019-04-07T18:46:47.807Z,35.26
2019-04-07T18:49:20.293Z,35.27
2019-04-07T18:51:53.789Z,35.20
2019-04-07T18:54:30.752Z,35.26
2019-04-07T18:57:03.959Z,35.19
2019-04-07T18:59:37.581Z,35.33
2019-04-07T19:02:14.884Z,35.28
2019-04-07T19:04:46.055Z,35.40
2019-04-07T19:07:19.481Z,35.31
2019-04-07T19:10:05.042Z,35.33
2019-04-07T19:12:30.014Z,35.37
2019-04-07T19:15:08.883Z,35.33
2019-04-07T19:17:40.544Z,35.31
2019-04-07T19:20:15.054Z,35.35
2019-04-07T19:22:50.702Z,35.28
2019-04-07T19:25:23.538Z,35.20
2019-04-07T19:28:00.153Z,35.11
2019-04-07T19:30:32.245Z,35.18
2019-04-07T19:33:05.565Z,35.25
2019-04-07T19:35:41.213Z,35.14
2019-04-07T19:38:16.258Z,35.15
2019-04-07T19:40:49.388Z,35.17
2019-04-07T19:43:22.910Z,35.03
2019-04-07T19:45:57.039Z,35.08
2019-04-07T19:48:30.900Z,35.05
2019-04-07T19:51:04.273Z,34.96
2019-04-07T19:53:38.633Z,35.04
2019-04-07T19:56:12.521Z,34.94
2019-04-07T19:58:45.849Z,35.15
2019-04-07T20:01:19.346Z,34.99
2019-04-07T20:03:52.665Z,34.45
2019-04-07T20:06:26.272Z,33.32
2019-04-07T20:09:00.085Z,32.75
2019-04-07T20:11:35.791Z,32.50
2019-04-07T20:14:12.529Z,33.36
2019-04-07T20:16:46.135Z,33.75
2019-04-07T20:19:19.441Z,34.09
2019-04-07T20:21:55.155Z,34.23
2019-04-07T20:24:29.486Z,34.38
2019-04-07T20:27:03.096Z,34.26
2019-04-07T20:29:41.486Z,34.19
2019-04-07T20:32:11.581Z,34.19
2019-04-07T20:34:45.104Z,34.00
2019-04-07T20:37:18.522Z,33.62
2019-04-07T20:39:51.967Z,33.46
2019-04-07T20:42:25.723Z,33.66
2019-04-07T20:45:04.240Z,33.89
2019-04-07T20:47:34.626Z,34.18
2019-04-07T20:50:10.725Z,34.46
2019-04-07T20:52:43.414Z,34.69
2019-04-07T20:55:17.861Z,34.85
2019-04-07T20:57:53.923Z,34.96
2019-04-07T21:00:26.485Z,35.04
2019-04-07T21:03:14.458Z,35.18
2019-04-07T21:05:35.628Z,34.50
2019-04-07T21:08:08.917Z,35.00
2019-04-07T21:10:42.295Z,34.86
2019-04-07T21:13:17.389Z,34.85
2019-04-07T21:15:50.677Z,34.85
2019-04-07T21:18:24.249Z,34.81
2019-04-07T21:20:57.672Z,34.96
2019-04-07T21:23:31.617Z,34.94
2019-04-07T21:26:05.602Z,35.12
2019-04-07T21:28:39.189Z,35.07
2019-04-07T21:31:15.995Z,35.13
2019-04-07T21:33:48.202Z,35.08
2019-04-07T21:36:21.829Z,35.10
2019-04-07T21:38:56.358Z,35.13
2019-04-07T21:41:30.672Z,35.12
2019-04-07T21:44:04.175Z,35.05
2019-04-07T21:46:37.605Z,35.06
2019-04-07T21:49:11.903Z,35.04
2019-04-07T21:51:46.557Z,35.04
2019-04-07T21:54:21.481Z,35.04
2019-04-07T21:56:56.010Z,35.04
2019-04-07T21:59:31.420Z,35.09
2019-04-07T22:02:09.254Z,35.19
2019-04-07T22:04:40.414Z,35.11
2019-04-07T22:07:13.922Z,35.03
2019-04-07T22:09:50.720Z,35.01
2019-04-07T22:12:28.666Z,35.03
2019-04-07T22:14:59.164Z,35.01
2019-04-07T22:17:36.753Z,35.00
2019-04-07T22:20:09.167Z,35.05
2019-04-07T22:22:44.350Z,35.04
2019-04-07T22:25:28.926Z,35.07
2019-04-07T22:28:05.616Z,35.04
2019-04-07T22:30:42.347Z,34.98
2019-04-07T22:33:15.823Z,35.02
2019-04-07T22:35:49.259Z,35.03
2019-04-07T22:38:23.760Z,35.00
2019-04-07T22:40:58.397Z,35.05
2019-04-07T22:43:32.011Z,35.17
2019-04-07T22:46:16.500Z,35.07
2019-04-07T22:48:40.528Z,35.00
2019-04-07T22:51:14.873Z,35.00
2019-04-07T22:53:48.404Z,35.03
2019-04-07T22:56:22.274Z,35.04
2019-04-07T22:58:56.213Z,35.08
2019-04-07T23:01:29.660Z,35.08
2019-04-07T23:04:03.518Z,35.16
2019-04-07T23:06:36.939Z,35.06
2019-04-07T23:09:10.349Z,35.10
2019-04-07T23:11:44.132Z,35.02
2019-04-07T23:14:17.867Z,35.04
2019-04-07T23:16:52.017Z,35.04
2019-04-07T23:19:25.491Z,35.05
2019-04-07T23:21:58.928Z,34.99
2019-04-07T23:24:32.266Z,35.00
2019-04-07T23:27:06.192Z,35.02
2019-04-07T23:29:39.578Z,35.01
2019-04-07T23:32:12.884Z,34.98
2019-04-07T23:34:46.283Z,35.04
2019-04-07T23:37:19.611Z,34.97
2019-04-07T23:39:53.768Z,34.95
2019-04-07T23:42:27.186Z,34.95
2019-04-07T23:45:00.879Z,34.94
2019-04-07T23:47:34.148Z,34.95
2019-04-07T23:50:07.661Z,34.90
2019-04-07T23:52:41.196Z,34.91
2019-04-07T23:55:15.000Z,34.90
2019-04-07T23:57:48.747Z,34.88
